Time;durP1;ratioP1;P1;durP2;ratioP2;P2;SDS_P1;SDS_P2;PMS_P1;PMS_P2;Temp;Humidity;BMP_temperature;BMP_pressure;BME280_temperature;BME280_humidity;BME280_pressure;Samples;Min_cycle;Max_cycle;Signal;HPM_P1;HPM_P2
2024/03/21 00:02:04;;;;;;;2.50;1.98;;;9.70;99.90;;;;;;5007529;28;20466;-64
2024/03/21 00:04:29;;;;;;;4.47;2.40;;;9.70;99.90;;;;;;5005795;28;20045;-64
2024/03/21 00:06:55;;;;;;;4.07;2.13;;;9.80;99.90;;;;;;5011533;28;20054;-64
2024/03/21 00:09:22;;;;;;;8.80;2.22;;;9.80;99.90;;;;;;5006322;28;20050;-64
2024/03/21 00:11:48;;;;;;;2.53;1.75;;;9.90;99.90;;;;;;5006632;28;20045;-64
2024/03/21 00:14:15;;;;;;;3.42;1.80;;;9.90;99.90;;;;;;5004648;28;20045;-64
2024/03/21 00:16:41;;;;;;;3.03;1.77;;;10.00;99.90;;;;;;5007277;28;20530;-64
2024/03/21 00:19:09;;;;;;;4.90;3.17;;;10.00;99.90;;;;;;5008746;28;20045;-64
2024/03/21 00:21:35;;;;;;;9.57;2.15;;;10.10;99.90;;;;;;5009965;28;20068;-64
2024/03/21 00:24:01;;;;;;;5.25;1.75;;;10.00;99.90;;;;;;5010021;28;20065;-64
2024/03/21 00:26:33;;;;;;;4.07;1.75;;;10.00;99.90;;;;;;4997405;28;20045;-63
2024/03/21 00:28:59;;;;;;;2.17;1.65;;;10.10;99.90;;;;;;5004209;28;20049;-63
2024/03/21 00:31:25;;;;;;;2.20;1.95;;;10.10;99.90;;;;;;5010124;28;20075;-63
2024/03/21 00:33:51;;;;;;;4.15;2.30;;;10.20;99.90;;;;;;5008425;28;20233;-63
2024/03/21 00:36:19;;;;;;;3.42;1.80;;;10.20;99.90;;;;;;5021718;28;20053;-63
2024/03/21 00:38:45;;;;;;;4.93;2.03;;;10.30;99.90;;;;;;5009681;28;20068;-64
2024/03/21 00:41:10;;;;;;;4.65;1.80;;;10.30;99.90;;;;;;5010512;28;20084;-64
2024/03/21 00:43:36;;;;;;;5.72;1.88;;;10.40;99.90;;;;;;5006946;28;20064;-64
2024/03/21 00:46:02;;;;;;;3.88;1.85;;;10.40;99.90;;;;;;5007118;28;20080;-64
2024/03/21 00:48:28;;;;;;;4.75;2.10;;;10.40;99.90;;;;;;5010292;28;20570;-64
2024/03/21 00:50:54;;;;;;;5.28;1.85;;;10.50;99.90;;;;;;5004947;28;20046;-62
2024/03/21 00:53:20;;;;;;;3.03;1.60;;;10.60;99.90;;;;;;5008971;28;20410;-62
2024/03/21 00:55:45;;;;;;;2.55;1.70;;;10.60;99.90;;;;;;5009930;28;20087;-63
2024/03/21 00:58:11;;;;;;;4.47;1.60;;;10.60;99.90;;;;;;5007292;28;20054;-63
2024/03/21 01:00:37;;;;;;;2.97;1.90;;;10.60;99.90;;;;;;5008229;28;20139;-62
2024/03/21 01:03:03;;;;;;;6.70;1.70;;;10.60;99.90;;;;;;5010152;28;20494;-62
2024/03/21 01:05:29;;;;;;;4.20;1.60;;;10.60;99.90;;;;;;5006186;28;20075;-63
2024/03/21 01:07:55;;;;;;;5.35;2.05;;;10.60;99.90;;;;;;5011384;28;20049;-64
2024/03/21 01:10:21;;;;;;;7.82;2.10;;;10.70;99.90;;;;;;5009251;28;20065;-63
2024/03/21 01:12:47;;;;;;;7.00;2.13;;;10.80;99.90;;;;;;5009923;28;20049;-63
2024/03/21 01:15:15;;;;;;;2.45;1.60;;;10.80;99.90;;;;;;5012252;28;20495;-63
2024/03/21 01:17:43;;;;;;;4.97;1.90;;;10.80;99.90;;;;;;5009520;28;20049;-63
2024/03/21 01:20:09;;;;;;;3.15;1.90;;;10.90;99.90;;;;;;5006888;28;20096;-63
2024/03/21 01:22:34;;;;;;;4.53;1.90;;;10.90;99.90;;;;;;5002982;28;20079;-63
2024/03/21 01:25:00;;;;;;;6.57;1.80;;;10.90;99.90;;;;;;5003750;28;20106;-63
2024/03/21 01:27:26;;;;;;;2.05;1.70;;;10.90;99.90;;;;;;5006780;28;20140;-64
2024/03/21 01:29:52;;;;;;;5.57;1.90;;;10.90;99.90;;;;;;5009270;28;20053;-64
2024/03/21 01:32:18;;;;;;;3.15;2.03;;;10.80;99.90;;;;;;5010829;28;20053;-64
2024/03/21 01:34:43;;;;;;;3.17;1.70;;;10.80;99.90;;;;;;5004852;28;20057;-63
2024/03/21 01:37:09;;;;;;;4.72;1.98;;;10.80;99.90;;;;;;5005254;28;20529;-64
2024/03/21 01:39:35;;;;;;;3.97;2.00;;;10.90;99.90;;;;;;5005250;28;20062;-64
2024/03/21 01:42:01;;;;;;;6.13;2.25;;;10.90;99.90;;;;;;5005656;28;20049;-64
2024/03/21 01:44:26;;;;;;;7.90;1.90;;;10.90;99.90;;;;;;5008582;28;20053;-64
2024/03/21 01:46:52;;;;;;;3.63;2.40;;;10.90;99.90;;;;;;5005901;28;20081;-64
2024/03/21 01:49:19;;;;;;;2.10;1.85;;;10.80;99.90;;;;;;5004792;28;20045;-64
2024/03/21 01:51:46;;;;;;;3.63;1.73;;;10.80;99.90;;;;;;5013586;28;20049;-64
2024/03/21 01:54:14;;;;;;;2.25;1.58;;;10.90;99.90;;;;;;5006682;28;20053;-64
2024/03/21 01:56:40;;;;;;;2.80;1.52;;;11.00;99.90;;;;;;5008451;28;20064;-64
2024/03/21 01:59:07;;;;;;;4.97;1.77;;;11.10;99.90;;;;;;5003054;28;20046;-64
2024/03/21 02:01:34;;;;;;;4.43;1.88;;;11.30;99.90;;;;;;5010288;28;20054;-64
2024/03/21 02:04:03;;;;;;;4.75;2.03;;;11.40;99.90;;;;;;5008447;28;20478;-64
2024/03/21 02:06:31;;;;;;;8.25;2.45;;;11.60;99.90;;;;;;5004178;28;20495;-64
2024/03/21 02:08:58;;;;;;;2.33;1.52;;;11.70;99.90;;;;;;5009770;28;20127;-64
2024/03/21 02:11:24;;;;;;;2.78;1.75;;;12.00;99.90;;;;;;5010180;28;20109;-64
2024/03/21 02:13:52;;;;;;;3.47;1.65;;;12.30;99.90;;;;;;5009422;28;20054;-64
2024/03/21 02:16:21;;;;;;;8.60;1.83;;;12.40;99.90;;;;;;5006643;28;20084;-64
2024/03/21 02:18:47;;;;;;;7.30;2.10;;;12.50;99.90;;;;;;5010876;28;20052;-64
2024/03/21 02:23:57;;;;;;;2.78;1.67;;;12.80;99.90;;;;;;5005194;28;20227;-64
2024/03/21 02:26:24;;;;;;;2.40;1.65;;;13.00;99.90;;;;;;5008354;28;20058;-64
2024/03/21 02:28:51;;;;;;;2.67;1.50;;;13.10;99.90;;;;;;5007278;28;20519;-64
2024/03/21 02:31:22;;;;;;;1.88;1.20;;;13.20;99.90;;;;;;5010091;28;20056;-64
2024/03/21 02:33:48;;;;;;;4.13;1.58;;;13.30;99.90;;;;;;5011167;28;20041;-64
2024/03/21 02:36:15;;;;;;;3.15;1.75;;;13.40;99.90;;;;;;5008967;28;20060;-64
2024/03/21 02:38:41;;;;;;;2.72;1.58;;;13.40;99.90;;;;;;5011191;28;20053;-64
2024/03/21 02:41:07;;;;;;;2.47;1.40;;;13.50;99.90;;;;;;5009215;28;20045;-64
2024/03/21 02:43:32;;;;;;;6.10;1.60;;;13.50;99.90;;;;;;5009775;28;20458;-64
2024/03/21 02:45:58;;;;;;;2.40;1.40;;;13.80;99.90;;;;;;5010126;28;20045;-64
2024/03/21 02:48:24;;;;;;;4.63;1.58;;;14.00;99.90;;;;;;5009309;28;20088;-64
2024/03/21 02:50:50;;;;;;;2.05;1.30;;;13.90;99.90;;;;;;5004265;28;20434;-64
2024/03/21 02:53:16;;;;;;;2.70;1.55;;;13.80;99.90;;;;;;5008494;28;20049;-64
2024/03/21 02:55:42;;;;;;;5.70;1.58;;;13.80;99.90;;;;;;4996843;28;20053;-64
2024/03/21 02:58:07;;;;;;;2.63;1.55;;;13.80;99.90;;;;;;5009203;28;20053;-64
2024/03/21 03:00:33;;;;;;;3.17;1.60;;;13.80;99.90;;;;;;5009062;28;20051;-64
2024/03/21 03:02:59;;;;;;;4.22;1.75;;;13.80;99.90;;;;;;5011706;28;20089;-64
2024/03/21 03:05:25;;;;;;;2.75;1.55;;;13.80;99.90;;;;;;5010036;28;20067;-64
2024/03/21 03:07:50;;;;;;;4.57;1.70;;;13.70;99.90;;;;;;5007672;28;20111;-64
2024/03/21 03:10:16;;;;;;;3.10;1.90;;;13.80;99.90;;;;;;5007546;28;20053;-64
2024/03/21 03:12:42;;;;;;;3.35;1.83;;;13.70;99.90;;;;;;5010223;28;20088;-64
2024/03/21 03:15:10;;;;;;;2.67;1.55;;;13.70;99.90;;;;;;5007324;28;20050;-64
2024/03/21 03:17:36;;;;;;;6.30;2.13;;;13.70;99.90;;;;;;5003178;28;20492;-64
2024/03/21 03:20:01;;;;;;;3.95;2.25;;;13.80;99.90;;;;;;5007594;28;20045;-64
2024/03/21 03:22:28;;;;;;;3.58;1.80;;;13.90;99.90;;;;;;5005678;28;20699;-64
2024/03/21 03:24:54;;;;;;;3.92;1.67;;;13.90;99.90;;;;;;5012143;28;20057;-64
2024/03/21 03:27:19;;;;;;;3.13;1.60;;;13.90;99.90;;;;;;5005896;28;20483;-64
2024/03/21 03:29:47;;;;;;;2.03;1.63;;;13.80;99.90;;;;;;5011516;28;20050;-64
2024/03/21 03:32:13;;;;;;;6.20;1.77;;;13.90;99.90;;;;;;5009559;28;20056;-64
2024/03/21 03:37:23;;;;;;;2.95;1.90;;;13.90;99.90;;;;;;5007956;28;20050;-64
2024/03/21 03:39:49;;;;;;;3.70;1.92;;;13.90;99.90;;;;;;5010341;28;20079;-64
2024/03/21 03:42:15;;;;;;;4.40;1.80;;;13.80;99.90;;;;;;5010088;28;20426;-64
2024/03/21 03:44:41;;;;;;;5.10;2.17;;;13.80;99.90;;;;;;5009084;28;20049;-64
2024/03/21 03:47:06;;;;;;;5.35;1.80;;;13.80;99.90;;;;;;5006454;28;20092;-64
2024/03/21 03:49:32;;;;;;;2.40;1.67;;;13.80;99.90;;;;;;5008781;28;20495;-63
2024/03/21 03:51:58;;;;;;;2.67;1.77;;;13.80;99.90;;;;;;4991323;28;20525;-64
2024/03/21 03:54:24;;;;;;;4.45;1.83;;;13.80;99.90;;;;;;5002865;28;20050;-64
2024/03/21 03:56:49;;;;;;;5.65;2.30;;;13.80;99.90;;;;;;5009352;28;20590;-64
2024/03/21 03:59:15;;;;;;;5.20;1.65;;;13.90;99.90;;;;;;5007535;28;20064;-62
2024/03/21 04:01:41;;;;;;;2.90;2.10;;;13.80;99.90;;;;;;5007872;28;20053;-62
2024/03/21 04:04:07;;;;;;;4.78;2.00;;;13.80;99.90;;;;;;5009000;28;20060;-62
2024/03/21 04:06:33;;;;;;;3.70;1.90;;;13.80;99.90;;;;;;5014060;28;20064;-64
2024/03/21 04:08:59;;;;;;;4.95;2.00;;;13.70;99.90;;;;;;5008056;28;20081;-64
2024/03/21 04:11:25;;;;;;;3.60;2.17;;;13.70;99.90;;;;;;5006234;28;20675;-64
2024/03/21 04:13:51;;;;;;;2.08;1.85;;;13.70;99.90;;;;;;5007526;28;20061;-62
2024/03/21 04:16:18;;;;;;;5.80;2.13;;;13.70;99.90;;;;;;5009148;28;20214;-62
2024/03/21 04:18:44;;;;;;;5.05;2.10;;;13.60;99.90;;;;;;5006852;28;20049;-63
2024/03/21 04:21:11;;;;;;;7.07;2.53;;;13.60;99.90;;;;;;5010412;28;20589;-62
2024/03/21 04:23:37;;;;;;;3.33;1.95;;;13.60;99.90;;;;;;5011408;28;20507;-63
2024/03/21 04:26:03;;;;;;;3.22;1.88;;;13.60;99.90;;;;;;5007881;28;20102;-63
2024/03/21 04:28:29;;;;;;;5.57;2.00;;;13.60;99.90;;;;;;5012144;28;20072;-62
2024/03/21 04:30:54;;;;;;;3.47;1.90;;;13.60;99.90;;;;;;5009367;28;20048;-63
2024/03/21 04:33:20;;;;;;;3.10;2.17;;;13.70;99.90;;;;;;5008328;28;21786;-63
2024/03/21 04:35:46;;;;;;;2.70;1.83;;;13.70;99.90;;;;;;5010311;28;20184;-62
2024/03/21 04:38:12;;;;;;;5.82;2.35;;;13.70;99.90;;;;;;5003999;28;20045;-63
2024/03/21 04:40:38;;;;;;;5.63;2.40;;;13.70;99.90;;;;;;5009021;28;20049;-63
2024/03/21 04:43:03;;;;;;;5.03;2.45;;;13.70;99.90;;;;;;5006837;28;20133;-63
2024/03/21 04:45:29;;;;;;;4.22;2.30;;;13.70;99.90;;;;;;5006930;28;20735;-63
2024/03/21 04:47:55;;;;;;;6.10;2.50;;;13.60;99.90;;;;;;5001398;28;20454;-63
2024/03/21 04:50:22;;;;;;;3.92;2.75;;;13.60;99.90;;;;;;5004636;28;20192;-63
2024/03/21 04:52:48;;;;;;;3.78;2.33;;;13.60;99.90;;;;;;5006812;28;20057;-63
2024/03/21 04:55:14;;;;;;;5.28;2.50;;;13.50;99.90;;;;;;5005878;28;20058;-63
2024/03/21 04:57:40;;;;;;;9.18;3.13;;;13.50;99.90;;;;;;5007106;28;20073;-63
2024/03/21 05:00:10;;;;;;;5.38;3.42;;;13.40;99.90;;;;;;5003898;28;20411;-63
2024/03/21 05:02:41;;;;;;;4.60;2.78;;;13.40;99.90;;;;;;5004295;28;20046;-63
2024/03/21 05:05:08;;;;;;;5.03;2.65;;;13.30;99.90;;;;;;5012650;28;20589;-63
2024/03/21 05:07:34;;;;;;;5.50;2.65;;;13.20;99.90;;;;;;5009699;28;20049;-63
2024/03/21 05:10:00;;;;;;;7.93;2.65;;;13.10;99.90;;;;;;5010031;28;20060;-63
2024/03/21 05:12:27;;;;;;;4.63;3.30;;;13.00;99.90;;;;;;5004813;28;20152;-63
2024/03/21 05:14:53;;;;;;;6.25;3.38;;;12.80;99.90;;;;;;5002939;28;20123;-63
2024/03/21 05:17:20;;;;;;;5.30;2.88;;;12.80;99.90;;;;;;5007538;28;20474;-63
2024/03/21 05:19:46;;;;;;;5.97;3.40;;;12.70;99.90;;;;;;5005307;28;20439;-63
2024/03/21 05:22:12;;;;;;;4.63;2.97;;;12.60;99.90;;;;;;5005646;28;20427;-63
2024/03/21 05:24:38;;;;;;;4.82;3.03;;;12.60;99.90;;;;;;5010828;28;20099;-62
2024/03/21 05:27:05;;;;;;;5.22;3.00;;;12.60;99.90;;;;;;5005180;28;20738;-63
2024/03/21 05:29:31;;;;;;;5.68;4.25;;;12.50;99.90;;;;;;5009649;28;20060;-62
2024/03/21 05:31:57;;;;;;;7.05;3.38;;;12.50;99.90;;;;;;5005800;28;20057;-63
2024/03/21 05:34:23;;;;;;;5.93;3.33;;;12.50;99.90;;;;;;5003521;28;20057;-63
2024/03/21 05:36:49;;;;;;;6.70;3.75;;;12.40;99.90;;;;;;5003256;28;20058;-63
2024/03/21 05:39:15;;;;;;;7.10;3.70;;;12.40;99.90;;;;;;5011991;28;20063;-63
2024/03/21 05:41:40;;;;;;;7.13;3.50;;;12.30;99.90;;;;;;5010469;28;20049;-63
2024/03/21 05:44:06;;;;;;;6.82;3.58;;;12.30;99.90;;;;;;5005744;28;20064;-63
2024/03/21 05:46:32;;;;;;;8.95;3.50;;;12.30;99.90;;;;;;5014758;28;20076;-63
2024/03/21 05:48:58;;;;;;;7.35;3.35;;;12.30;99.90;;;;;;5006244;28;20049;-63
2024/03/21 05:51:24;;;;;;;4.95;3.22;;;12.30;99.90;;;;;;5004208;28;20211;-63
2024/03/21 05:53:50;;;;;;;6.80;2.78;;;12.30;99.90;;;;;;5010553;28;20135;-65
2024/03/21 05:56:16;;;;;;;4.13;3.45;;;12.30;99.90;;;;;;5006237;28;20229;-64
2024/03/21 05:58:43;;;;;;;7.75;3.85;;;12.30;99.90;;;;;;5009311;28;20061;-64
2024/03/21 06:03:41;;;;;;;9.80;3.10;;;12.40;99.90;;;;;;5010169;28;20050;-64
2024/03/21 06:06:06;;;;;;;5.97;2.78;;;12.30;99.90;;;;;;5010935;28;20060;-64
2024/03/21 06:08:33;;;;;;;5.78;2.83;;;12.30;99.90;;;;;;5013160;28;20053;-64
2024/03/21 06:10:59;;;;;;;6.40;2.95;;;12.30;99.90;;;;;;5012445;28;20041;-64
2024/03/21 06:13:24;;;;;;;4.53;2.90;;;12.30;99.90;;;;;;5009967;28;20394;-64
2024/03/21 06:15:50;;;;;;;7.47;3.05;;;12.30;99.90;;;;;;5008887;28;20050;-64
2024/03/21 06:18:16;;;;;;;8.10;2.95;;;12.30;99.90;;;;;;5017947;28;20056;-63
2024/03/21 06:20:42;;;;;;;4.68;2.63;;;12.30;99.90;;;;;;5012814;28;20095;-63
2024/03/21 06:23:08;;;;;;;5.55;2.75;;;12.40;99.90;;;;;;5014227;28;20613;-64
2024/03/21 06:25:34;;;;;;;7.15;3.22;;;12.40;99.90;;;;;;5013545;28;20080;-64
2024/03/21 06:28:01;;;;;;;7.30;3.30;;;12.40;99.90;;;;;;5010985;28;20061;-63
2024/03/21 06:30:27;;;;;;;4.45;2.47;;;12.40;99.90;;;;;;5010716;28;20056;-64
2024/03/21 06:32:54;;;;;;;5.72;3.00;;;12.30;99.90;;;;;;5010377;28;20145;-64
2024/03/21 06:35:20;;;;;;;5.07;2.80;;;12.40;99.90;;;;;;5006674;28;20132;-64
2024/03/21 06:37:53;;;;;;;4.25;2.90;;;12.30;99.90;;;;;;5008141;28;20124;-64
2024/03/21 06:40:19;;;;;;;4.95;3.03;;;12.40;99.90;;;;;;5009197;28;20054;-64
2024/03/21 06:42:45;;;;;;;6.03;2.90;;;12.40;99.90;;;;;;5005915;28;20056;-64
2024/03/21 06:45:24;;;;;;;5.88;2.75;;;12.50;99.90;;;;;;5010294;28;20057;-63
2024/03/21 06:47:50;;;;;;;5.53;3.25;;;12.50;99.90;;;;;;5007366;28;20046;-64
2024/03/21 06:50:17;;;;;;;5.00;3.13;;;12.50;99.90;;;;;;5007535;28;20054;-64
2024/03/21 06:52:44;;;;;;;5.13;3.60;;;12.60;99.90;;;;;;5007268;28;20060;-64
2024/03/21 06:55:14;;;;;;;6.20;3.00;;;12.60;99.90;;;;;;5006449;28;20073;-64
2024/03/21 06:57:46;;;;;;;4.93;2.97;;;12.60;99.90;;;;;;5008400;28;20045;-63
2024/03/21 07:00:13;;;;;;;4.95;2.75;;;12.60;99.90;;;;;;5006718;28;20061;-64
2024/03/21 07:02:39;;;;;;;6.90;3.35;;;12.60;99.90;;;;;;5009307;28;20049;-64
2024/03/21 07:05:09;;;;;;;8.65;3.17;;;12.60;99.90;;;;;;5008190;28;20057;-64
2024/03/21 07:07:35;;;;;;;11.15;3.35;;;12.60;99.90;;;;;;4993366;28;20050;-64
2024/03/21 07:10:03;;;;;;;7.85;3.30;;;12.60;99.90;;;;;;5006445;28;20080;-64
2024/03/21 07:12:29;;;;;;;6.75;2.92;;;12.60;99.90;;;;;;5009037;28;20458;-65
2024/03/21 07:14:54;;;;;;;8.10;3.17;;;12.70;99.90;;;;;;5008943;28;20041;-64
2024/03/21 07:17:20;;;;;;;8.38;3.78;;;12.70;99.90;;;;;;5007714;28;20087;-64
2024/03/21 07:19:47;;;;;;;4.85;3.33;;;12.80;99.90;;;;;;5008772;28;20049;-64
2024/03/21 07:22:13;;;;;;;9.00;3.13;;;12.80;99.90;;;;;;5008304;28;20057;-64
2024/03/21 07:24:39;;;;;;;6.50;3.17;;;13.00;99.90;;;;;;5010314;28;20041;-64
2024/03/21 07:27:05;;;;;;;6.78;3.83;;;13.10;99.90;;;;;;5008829;28;20038;-64
2024/03/21 07:29:31;;;;;;;6.30;3.22;;;13.30;99.90;;;;;;5008513;28;20153;-64
2024/03/21 07:31:58;;;;;;;4.35;3.15;;;13.50;99.90;;;;;;5009541;28;20054;-64
2024/03/21 07:34:24;;;;;;;5.90;3.08;;;13.70;99.90;;;;;;5008229;28;20137;-64
2024/03/21 07:36:51;;;;;;;4.68;3.05;;;13.90;99.90;;;;;;5008817;28;20448;-64
2024/03/21 07:39:20;;;;;;;5.65;3.10;;;14.20;99.90;;;;;;5010361;28;20084;-64
2024/03/21 07:41:50;;;;;;;4.72;2.95;;;14.40;99.90;;;;;;5006288;28;20049;-64
2024/03/21 07:44:16;;;;;;;6.43;3.20;;;14.60;99.90;;;;;;5005329;28;20049;-64
2024/03/21 07:46:42;;;;;;;6.78;3.10;;;14.70;99.90;;;;;;5010574;28;20049;-64
2024/03/21 07:49:08;;;;;;;5.85;2.78;;;14.80;99.90;;;;;;5007972;28;20050;-64
2024/03/21 07:51:35;;;;;;;5.80;2.60;;;14.80;99.90;;;;;;4993051;28;20049;-64
2024/03/21 07:54:01;;;;;;;6.07;3.03;;;15.00;99.90;;;;;;5006796;28;20052;-64
2024/03/21 07:56:27;;;;;;;6.15;3.20;;;15.20;99.90;;;;;;5007995;28;20050;-64
2024/03/21 07:58:53;;;;;;;5.15;3.13;;;15.40;99.90;;;;;;5006133;28;20506;-64
2024/03/21 08:01:19;;;;;;;6.72;3.25;;;15.60;99.90;;;;;;5006616;28;20495;-64
2024/03/21 08:03:45;;;;;;;5.15;3.80;;;15.70;99.90;;;;;;5008132;28;20430;-64
2024/03/21 08:06:11;;;;;;;3.45;2.53;;;15.70;99.90;;;;;;5006428;28;20058;-64
2024/03/21 08:08:37;;;;;;;6.53;2.55;;;15.80;99.90;;;;;;5009517;28;20108;-62
2024/03/21 08:11:03;;;;;;;4.93;2.92;;;15.90;99.90;;;;;;5005014;28;20049;-62
2024/03/21 08:13:29;;;;;;;6.70;2.80;;;16.10;99.90;;;;;;5002547;28;20509;-64
2024/03/21 08:15:56;;;;;;;7.45;2.80;;;16.10;99.90;;;;;;5008933;28;20042;-64
2024/03/21 08:18:25;;;;;;;5.55;2.97;;;16.10;99.90;;;;;;5003729;28;20178;-64
2024/03/21 08:20:53;;;;;;;4.45;2.95;;;16.30;99.90;;;;;;5006889;28;20045;-64
2024/03/21 08:23:19;;;;;;;5.20;3.03;;;16.40;99.90;;;;;;5004420;28;20418;-64
2024/03/21 08:25:45;;;;;;;4.70;3.05;;;16.60;99.90;;;;;;5008440;28;20384;-64
2024/03/21 08:28:12;;;;;;;5.78;3.42;;;16.80;99.90;;;;;;5004893;28;20060;-64
2024/03/21 08:30:46;;;;;;;4.40;2.90;;;17.00;99.90;;;;;;5006983;28;20066;-64
2024/03/21 08:33:14;;;;;;;6.97;3.15;;;17.10;99.90;;;;;;5006080;28;20050;-65
2024/03/21 08:35:41;;;;;;;5.15;2.90;;;17.30;99.90;;;;;;5005935;28;20494;-64
2024/03/21 08:38:07;;;;;;;4.15;3.42;;;17.40;99.90;;;;;;5008789;28;20061;-64
2024/03/21 08:40:32;;;;;;;6.45;4.15;;;17.50;99.90;;;;;;5005862;28;20098;-64
2024/03/21 08:42:59;;;;;;;3.80;2.58;;;17.50;99.90;;;;;;5006662;28;20050;-64
2024/03/21 08:45:25;;;;;;;6.95;2.55;;;17.50;99.90;;;;;;5007348;28;20109;-65
2024/03/21 08:47:51;;;;;;;5.25;2.58;;;17.60;99.90;;;;;;5007717;28;20052;-64
2024/03/21 08:50:17;;;;;;;4.80;2.63;;;17.70;99.90;;;;;;5002616;28;20053;-65
2024/03/21 08:52:42;;;;;;;4.00;2.28;;;17.80;99.90;;;;;;5007286;28;20705;-65
2024/03/21 08:55:08;;;;;;;3.08;2.60;;;17.80;99.90;;;;;;4999659;28;20041;-64
2024/03/21 08:57:36;;;;;;;6.78;2.53;;;17.80;99.90;;;;;;5007270;28;20049;-64
2024/03/21 09:00:03;;;;;;;3.83;2.40;;;17.70;99.90;;;;;;5006767;28;20057;-64
2024/03/21 09:02:29;;;;;;;3.95;2.60;;;17.50;99.90;;;;;;5007261;28;20504;-64
2024/03/21 09:04:55;;;;;;;3.60;2.60;;;17.30;99.90;;;;;;5009075;28;20052;-64
2024/03/21 09:07:20;;;;;;;6.30;2.58;;;17.00;99.90;;;;;;5007310;28;20133;-64
2024/03/21 09:09:46;;;;;;;7.18;2.60;;;16.60;99.90;;;;;;5006054;28;20640;-64
2024/03/21 09:12:12;;;;;;;3.22;2.58;;;16.20;99.90;;;;;;5001032;28;20129;-64
2024/03/21 09:14:38;;;;;;;3.72;2.97;;;16.00;99.90;;;;;;5006577;28;20057;-65
2024/03/21 09:17:04;;;;;;;4.95;2.58;;;15.90;99.90;;;;;;5005651;28;20566;-64
2024/03/21 09:19:29;;;;;;;6.18;2.92;;;15.80;99.90;;;;;;5007231;28;20058;-64
2024/03/21 09:21:56;;;;;;;6.18;2.83;;;15.80;99.90;;;;;;5007940;28;20049;-64
2024/03/21 09:24:23;;;;;;;5.80;2.47;;;15.80;99.90;;;;;;5005847;28;20046;-64
2024/03/21 09:26:48;;;;;;;4.00;2.50;;;15.70;99.90;;;;;;5003740;28;20053;-64
2024/03/21 09:29:14;;;;;;;5.10;2.92;;;15.70;99.90;;;;;;5002134;28;20395;-64
2024/03/21 09:31:40;;;;;;;3.47;2.38;;;15.70;99.90;;;;;;5009018;28;20076;-64
2024/03/21 09:34:06;;;;;;;6.30;2.88;;;15.80;99.90;;;;;;5004900;28;20060;-64
2024/03/21 09:36:32;;;;;;;5.35;2.90;;;15.90;99.90;;;;;;5005276;28;20082;-64
2024/03/21 09:38:58;;;;;;;6.13;3.40;;;16.10;99.90;;;;;;5005891;28;20531;-64
2024/03/21 09:41:27;;;;;;;4.88;2.45;;;16.80;99.90;;;;;;5002730;28;20100;-64
2024/03/21 09:43:53;;;;;;;3.70;2.55;;;17.50;99.90;;;;;;5000672;28;20054;-64
2024/03/21 09:46:19;;;;;;;3.20;2.70;;;18.00;99.90;;;;;;5004462;28;20062;-65
2024/03/21 09:48:46;;;;;;;4.13;3.30;;;18.40;99.90;;;;;;5006823;28;20046;-64
2024/03/21 09:51:22;;;;;;;4.38;2.33;;;18.60;99.90;;;;;;5006919;28;20056;-64
2024/03/21 09:53:49;;;;;;;5.53;3.17;;;18.80;99.90;;;;;;4986737;28;20049;-65
2024/03/21 09:56:16;;;;;;;5.45;3.03;;;19.00;99.90;;;;;;5004934;28;20066;-65
2024/03/21 09:58:43;;;;;;;5.10;2.70;;;18.90;99.90;;;;;;5003335;28;20084;-65
2024/03/21 10:01:23;;;;;;;5.80;3.63;;;18.90;99.90;;;;;;5003845;28;20046;-65
2024/03/21 10:03:53;;;;;;;4.00;2.83;;;18.90;99.90;;;;;;5005151;28;20050;-65
2024/03/21 10:06:19;;;;;;;7.85;3.13;;;19.10;99.90;;;;;;5003409;28;20120;-62
2024/03/21 10:08:46;;;;;;;4.05;2.30;;;19.20;99.90;;;;;;5000849;28;20700;-62
2024/03/21 10:11:12;;;;;;;4.57;2.47;;;19.30;99.90;;;;;;5008456;28;20058;-62
2024/03/21 10:13:41;;;;;;;6.95;3.45;;;19.30;99.90;;;;;;5006546;28;20203;-62
2024/03/21 10:16:14;;;;;;;7.20;2.90;;;19.10;99.90;;;;;;5006226;28;20073;-65
2024/03/21 10:18:40;;;;;;;4.05;3.03;;;18.70;99.90;;;;;;5007962;28;20056;-65
2024/03/21 10:21:14;;;;;;;6.70;3.20;;;18.30;99.90;;;;;;5007159;28;20046;-64
2024/03/21 10:23:41;;;;;;;4.28;3.50;;;18.10;99.90;;;;;;5009017;28;20048;-64
2024/03/21 10:26:15;;;;;;;5.72;3.70;;;18.00;99.90;;;;;;5007594;28;20049;-65
2024/03/21 10:28:42;;;;;;;6.50;2.95;;;18.00;99.90;;;;;;5008637;28;20041;-65
2024/03/21 10:31:15;;;;;;;5.40;3.10;;;18.10;99.90;;;;;;5011154;28;20131;-65
2024/03/21 10:33:44;;;;;;;3.63;2.58;;;17.90;99.90;;;;;;5005810;28;20061;-64
2024/03/21 10:36:14;;;;;;;7.25;3.20;;;17.70;99.90;;;;;;5007404;28;20065;-64
2024/03/21 10:38:44;;;;;;;5.75;2.90;;;17.60;99.90;;;;;;5009061;28;20052;-65
2024/03/21 10:41:25;;;;;;;4.80;3.17;;;17.60;99.90;;;;;;5012074;28;20050;-65
2024/03/21 10:43:57;;;;;;;4.15;2.78;;;17.70;99.90;;;;;;5009532;28;20049;-65
2024/03/21 10:46:23;;;;;;;4.20;2.72;;;18.00;99.90;;;;;;5007370;28;20061;-64
2024/03/21 10:48:50;;;;;;;3.67;2.10;;;18.20;99.90;;;;;;4992130;28;20064;-64
2024/03/21 10:51:18;;;;;;;3.50;2.08;;;18.40;99.90;;;;;;5004281;28;20622;-65
2024/03/21 10:53:56;;;;;;;3.95;1.85;;;18.30;99.90;;;;;;5004162;28;20479;-65
2024/03/21 10:56:41;;;;;;;3.08;2.03;;;18.20;99.90;;;;;;5005411;28;20060;-65
2024/03/21 10:59:14;;;;;;;5.45;2.40;;;18.20;99.90;;;;;;5010941;28;20065;-65
2024/03/21 11:01:44;;;;;;;5.45;2.40;;;18.00;99.90;;;;;;5007460;28;20046;-64
2024/03/21 11:04:11;;;;;;;5.45;2.28;;;17.90;99.90;;;;;;5010170;28;20111;-65
2024/03/21 11:06:43;;;;;;;4.00;2.20;;;17.80;99.90;;;;;;5009804;28;20049;-65
2024/03/21 11:09:14;;;;;;;5.82;2.40;;;17.60;99.90;;;;;;5007692;28;20049;-64
2024/03/21 11:11:41;;;;;;;4.38;1.95;;;17.40;99.90;;;;;;5002947;28;20056;-65
2024/03/21 11:14:09;;;;;;;4.85;2.10;;;17.30;99.90;;;;;;5011659;28;20053;-65
2024/03/21 11:16:37;;;;;;;6.00;2.38;;;17.30;99.90;;;;;;5007551;28;20085;-65
2024/03/21 11:19:04;;;;;;;3.38;1.70;;;17.30;99.90;;;;;;5005819;28;20059;-65
2024/03/21 11:21:30;;;;;;;2.25;1.50;;;17.30;99.90;;;;;;5007048;28;20061;-65
2024/03/21 11:23:56;;;;;;;3.47;1.60;;;17.40;99.90;;;;;;5009414;28;20173;-65
2024/03/21 11:26:22;;;;;;;4.63;1.65;;;17.40;99.90;;;;;;5010959;28;20057;-65
2024/03/21 11:28:51;;;;;;;2.67;1.70;;;17.40;99.90;;;;;;5008243;28;20053;-63
2024/03/21 11:31:22;;;;;;;4.65;1.40;;;17.40;99.90;;;;;;5006548;28;20069;-63
2024/03/21 11:33:49;;;;;;;2.50;1.25;;;17.30;99.90;;;;;;5008968;28;20590;-64
2024/03/21 11:36:16;;;;;;;1.90;1.00;;;17.40;99.90;;;;;;5000613;28;20054;-64
2024/03/21 11:38:48;;;;;;;2.15;1.25;;;17.30;99.90;;;;;;5009715;28;20060;-63
2024/03/21 11:41:21;;;;;;;4.53;1.58;;;17.40;99.90;;;;;;5000028;28;20054;-63
2024/03/21 11:43:52;;;;;;;5.40;1.42;;;17.40;99.90;;;;;;5005752;28;20042;-65
2024/03/21 11:46:21;;;;;;;3.78;1.67;;;17.30;99.90;;;;;;5006228;28;20049;-65
2024/03/21 11:49:00;;;;;;;3.42;1.42;;;17.20;99.90;;;;;;5004036;28;20570;-65
2024/03/21 11:51:26;;;;;;;1.67;1.23;;;17.20;99.90;;;;;;5009131;28;20057;-62
2024/03/21 11:53:51;;;;;;;2.83;1.52;;;17.20;99.90;;;;;;5008859;28;20533;-64
2024/03/21 11:56:17;;;;;;;1.40;1.20;;;17.20;99.90;;;;;;5002971;28;20066;-65
2024/03/21 11:58:43;;;;;;;2.55;1.42;;;17.30;99.90;;;;;;5009238;28;20132;-64
2024/03/21 12:01:09;;;;;;;2.28;1.42;;;17.40;99.90;;;;;;5004906;28;20061;-64
2024/03/21 12:03:35;;;;;;;3.70;1.42;;;17.40;99.90;;;;;;5005246;28;20430;-64
2024/03/21 12:06:00;;;;;;;3.15;1.73;;;17.40;99.90;;;;;;5009308;28;20048;-64
2024/03/21 12:08:26;;;;;;;4.68;1.63;;;17.30;99.90;;;;;;5002756;28;20137;-64
2024/03/21 12:10:52;;;;;;;4.03;1.40;;;17.30;99.90;;;;;;5006071;28;20047;-64
2024/03/21 12:13:18;;;;;;;3.75;1.52;;;17.30;99.90;;;;;;5007140;28;20081;-63
2024/03/21 12:15:44;;;;;;;1.80;1.40;;;17.30;99.90;;;;;;5005860;28;20049;-63
2024/03/21 12:18:09;;;;;;;2.67;1.52;;;17.30;99.90;;;;;;5005461;28;20639;-63
2024/03/21 12:20:36;;;;;;;3.55;1.48;;;17.30;99.90;;;;;;5009807;28;20055;-63
2024/03/21 12:23:02;;;;;;;3.03;1.40;;;17.20;99.90;;;;;;5006814;28;20054;-63
2024/03/21 12:25:28;;;;;;;2.22;1.20;;;17.10;99.90;;;;;;5004933;28;20112;-63
2024/03/21 12:27:55;;;;;;;3.95;1.70;;;17.00;99.90;;;;;;5002950;28;20042;-63
2024/03/21 12:30:21;;;;;;;2.45;1.00;;;17.00;99.90;;;;;;5007020;28;20507;-63
2024/03/21 12:32:47;;;;;;;3.95;1.77;;;17.00;99.90;;;;;;5007685;28;20057;-63
2024/03/21 12:35:13;;;;;;;3.70;1.42;;;17.20;99.90;;;;;;5007515;28;20056;-63
2024/03/21 12:37:40;;;;;;;2.30;1.30;;;17.20;99.90;;;;;;5005972;28;20057;-63
2024/03/21 12:40:06;;;;;;;5.35;1.25;;;17.30;99.90;;;;;;5007807;28;20046;-63
2024/03/21 12:42:32;;;;;;;2.40;1.00;;;17.50;99.90;;;;;;5008786;28;20052;-63
2024/03/21 12:44:58;;;;;;;2.33;1.35;;;17.60;99.90;;;;;;5007362;28;20604;-63
2024/03/21 12:47:24;;;;;;;2.13;1.08;;;17.70;99.90;;;;;;5003968;28;20045;-63
2024/03/21 12:49:49;;;;;;;2.63;1.40;;;17.80;99.90;;;;;;5007390;28;20587;-63
2024/03/21 12:52:17;;;;;;;2.17;1.20;;;17.90;99.90;;;;;;5003730;28;20049;-63
2024/03/21 12:54:43;;;;;;;2.67;1.55;;;18.00;99.90;;;;;;5007439;28;20045;-63